createdAt,value
2023-04-01T00:01:47.558Z,63.64
2023-04-01T00:04:14.240Z,62.56
2023-04-01T00:06:41.006Z,61.59
2023-04-01T00:09:07.703Z,62.18
2023-04-01T00:11:35.004Z,61.68
2023-04-01T00:14:01.792Z,63.58
2023-04-01T00:16:28.481Z,63.30
2023-04-01T00:18:55.344Z,62.73
2023-04-01T00:21:23.106Z,61.57
2023-04-01T00:23:52.131Z,61.58
2023-04-01T00:26:22.052Z,60.71
2023-04-01T00:28:49.660Z,61.50
2023-04-01T00:31:16.462Z,61.64
2023-04-01T00:33:44.454Z,63.88
2023-04-01T00:36:16.437Z,64.95
2023-04-01T00:38:44.630Z,60.93
2023-04-01T00:41:17.829Z,61.80
2023-04-01T00:43:48.145Z,61.34
2023-04-01T00:46:15.469Z,60.79
2023-04-01T00:48:52.303Z,59.96
2023-04-01T00:51:24.532Z,63.05
2023-04-01T00:53:53.669Z,62.79
2023-04-01T00:56:26.374Z,64.06
2023-04-01T00:59:02.452Z,62.48
2023-04-01T01:01:30.867Z,63.00
2023-04-01T01:03:57.749Z,61.40
2023-04-01T01:06:50.317Z,61.02
2023-04-01T01:09:59.012Z,61.16
2023-04-01T01:12:39.080Z,60.60
2023-04-01T01:15:30.772Z,62.70
2023-04-01T01:18:23.305Z,62.67
2023-04-01T01:21:31.608Z,62.14
2023-04-01T01:24:16.657Z,62.77
2023-04-01T01:27:03.025Z,60.64
2023-04-01T01:29:38.673Z,60.78
2023-04-01T01:32:17.147Z,63.42
2023-04-01T01:35:08.470Z,61.84
2023-04-01T01:37:36.452Z,63.88
2023-04-01T01:40:06.929Z,61.44
2023-04-01T01:42:39.591Z,61.57
2023-04-01T01:45:08.348Z,62.09
2023-04-01T01:47:36.748Z,63.21
2023-04-01T01:50:06.863Z,63.64
2023-04-01T01:52:33.386Z,62.11
2023-04-01T01:55:00.358Z,61.48
2023-04-01T01:57:38.952Z,62.89
2023-04-01T02:00:16.164Z,61.12
2023-04-01T02:02:48.988Z,60.61
2023-04-01T02:05:20.588Z,61.33
2023-04-01T02:08:08.663Z,62.93
2023-04-01T02:10:41.401Z,62.34
2023-04-01T02:13:24.667Z,62.30
2023-04-01T02:15:56.512Z,63.05
2023-04-01T02:18:23.460Z,61.72
2023-04-01T02:20:51.332Z,62.17
2023-04-01T02:23:18.250Z,61.96
2023-04-01T02:25:46.333Z,63.85
2023-04-01T02:28:17.500Z,63.13
2023-04-01T02:30:46.628Z,62.22
2023-04-01T02:33:13.470Z,60.97
2023-04-01T02:35:40.429Z,61.91
2023-04-01T02:38:08.371Z,61.78
2023-04-01T02:40:50.643Z,61.47
2023-04-01T02:43:18.398Z,62.71
2023-04-01T02:45:45.293Z,62.11
2023-04-01T02:48:11.966Z,62.22
2023-04-01T02:50:38.754Z,61.75
2023-04-01T02:53:07.170Z,62.11
2023-04-01T02:55:35.595Z,63.08
2023-04-01T02:58:02.644Z,63.17
2023-04-01T03:00:30.493Z,63.25
2023-04-01T03:02:58.299Z,63.23
2023-04-01T03:05:25.741Z,63.16
2023-04-01T03:07:52.561Z,62.85
2023-04-01T03:10:19.423Z,63.98
2023-04-01T03:12:46.419Z,63.60
2023-04-01T03:15:15.609Z,63.64
2023-04-01T03:17:43.502Z,64.80
2023-04-01T03:20:12.249Z,65.50
2023-04-01T03:22:42.686Z,64.60
2023-04-01T03:25:10.848Z,65.51
2023-04-01T03:27:38.394Z,65.53
2023-04-01T03:30:07.289Z,64.67
2023-04-01T03:32:40.681Z,64.48
2023-04-01T03:35:08.141Z,63.62
2023-04-01T03:37:35.373Z,64.14
2023-04-01T03:40:02.143Z,66.40
2023-04-01T03:42:28.879Z,65.50
2023-04-01T03:44:55.652Z,65.13
2023-04-01T03:47:22.405Z,64.83
2023-04-01T03:49:50.163Z,65.04
2023-04-01T03:52:16.837Z,66.13
2023-04-01T03:54:43.606Z,63.98
2023-04-01T03:57:10.480Z,64.44
2023-04-01T03:59:37.604Z,66.23
2023-04-01T04:02:06.511Z,66.51
2023-04-01T04:04:35.810Z,66.54
2023-04-01T04:07:02.754Z,64.99
2023-04-01T04:09:37.252Z,65.72
2023-04-01T04:12:06.503Z,65.75
2023-04-01T04:14:33.339Z,65.97
2023-04-01T04:17:01.222Z,65.27
2023-04-01T04:19:28.159Z,65.57
2023-04-01T04:21:54.845Z,65.27
2023-04-01T04:24:21.838Z,66.25
2023-04-01T04:27:01.738Z,66.52
2023-04-01T04:29:28.859Z,67.18
2023-04-01T04:31:55.726Z,68.20
2023-04-01T04:34:23.429Z,65.79
2023-04-01T04:36:50.620Z,67.09
2023-04-01T04:39:18.179Z,66.57
2023-04-01T04:41:46.042Z,66.23
2023-04-01T04:44:13.231Z,67.21
2023-04-01T04:46:40.859Z,67.14
2023-04-01T04:49:14.387Z,65.66
2023-04-01T04:51:41.452Z,66.96
2023-04-01T04:54:09.828Z,66.60
2023-04-01T04:56:52.923Z,65.25
2023-04-01T04:59:20.934Z,66.78
2023-04-01T05:01:56.021Z,68.78
2023-04-01T05:04:22.839Z,68.13
2023-04-01T05:06:50.328Z,67.79
2023-04-01T05:09:17.805Z,68.76
2023-04-01T05:11:47.615Z,68.61
2023-04-01T05:14:25.756Z,68.17
2023-04-01T05:16:59.088Z,67.53
2023-04-01T05:19:26.117Z,66.65
2023-04-01T05:21:53.884Z,68.34
2023-04-01T05:24:20.799Z,68.06
2023-04-01T05:26:48.133Z,66.96
2023-04-01T05:29:16.450Z,66.94
2023-04-01T05:31:47.442Z,67.03
2023-04-01T05:34:14.635Z,67.70
2023-04-01T05:36:42.697Z,65.98
2023-04-01T05:39:10.789Z,66.94
2023-04-01T05:41:39.316Z,66.17
2023-04-01T05:44:06.378Z,67.79
2023-04-01T05:46:58.631Z,66.05
2023-04-01T05:49:28.371Z,66.19
2023-04-01T05:51:56.401Z,66.05
2023-04-01T05:54:23.756Z,66.44
2023-04-01T05:56:50.462Z,67.46
2023-04-01T05:59:18.088Z,65.17
2023-04-01T06:01:45.001Z,65.61
2023-04-01T06:04:17.115Z,65.78
2023-04-01T06:06:44.587Z,64.97
2023-04-01T06:09:17.601Z,65.66
2023-04-01T06:12:23.572Z,65.32
2023-04-01T06:15:19.800Z,64.91
2023-04-01T06:18:20.548Z,66.63
2023-04-01T06:20:53.374Z,64.79
2023-04-01T06:23:59.511Z,64.84
2023-04-01T06:26:40.240Z,64.82
2023-04-01T06:29:40.744Z,64.03
2023-04-01T06:32:21.650Z,62.93
2023-04-01T06:35:04.204Z,64.75
2023-04-01T06:38:06.579Z,63.67
2023-04-01T06:40:53.816Z,63.01
2023-04-01T06:43:59.819Z,64.13
2023-04-01T06:47:09.524Z,66.71
2023-04-01T06:50:11.796Z,65.91
2023-04-01T06:53:02.874Z,66.09
2023-04-01T06:55:54.688Z,64.40
2023-04-01T06:59:06.486Z,63.70
2023-04-01T07:01:46.804Z,64.16
2023-04-01T07:04:20.502Z,64.00
2023-04-01T07:06:59.332Z,63.38
2023-04-01T07:09:32.366Z,63.56
2023-04-01T07:12:32.027Z,63.44
2023-04-01T07:15:34.868Z,63.78
2023-04-01T07:18:12.071Z,64.54
2023-04-01T07:20:39.697Z,65.95
2023-04-01T07:23:32.344Z,65.59
2023-04-01T07:26:25.689Z,64.78
2023-04-01T07:29:12.015Z,64.74
2023-04-01T07:31:56.843Z,65.79
2023-04-01T07:34:43.849Z,64.72
2023-04-01T07:37:18.179Z,64.94
2023-04-01T07:40:22.868Z,64.55
2023-04-01T07:43:05.031Z,63.93
2023-04-01T07:45:54.325Z,64.40
2023-04-01T07:48:45.917Z,64.23
2023-04-01T07:51:22.658Z,64.42
2023-04-01T07:53:54.318Z,62.53
2023-04-01T07:56:36.235Z,61.40
2023-04-01T07:59:30.076Z,63.11
2023-04-01T08:02:14.155Z,63.31
2023-04-01T08:04:57.412Z,62.88
2023-04-01T08:07:51.736Z,62.25
2023-04-01T08:10:58.244Z,62.41
2023-04-01T08:13:58.279Z,63.86
2023-04-01T08:16:59.364Z,62.52
2023-04-01T08:20:00.864Z,60.42
2023-04-01T08:22:41.431Z,61.49
2023-04-01T08:25:25.728Z,59.87
2023-04-01T08:28:09.092Z,59.36
2023-04-01T08:30:40.933Z,60.25
2023-04-01T08:33:28.203Z,58.96
2023-04-01T08:36:14.899Z,60.90
2023-04-01T08:38:47.791Z,60.94
2023-04-01T08:41:33.740Z,59.98
2023-04-01T08:44:35.568Z,60.19
2023-04-01T08:47:20.538Z,62.22
2023-04-01T08:50:19.170Z,63.09
2023-04-01T08:53:13.672Z,64.58
2023-04-01T08:56:16.418Z,63.29
2023-04-01T08:59:07.624Z,62.74
2023-04-01T09:01:59.095Z,60.32
2023-04-01T09:04:50.710Z,60.28
2023-04-01T09:07:45.412Z,61.74
2023-04-01T09:10:25.466Z,63.84
2023-04-01T09:13:46.038Z,64.60
2023-04-01T09:16:38.771Z,65.38
2023-04-01T09:19:17.710Z,63.58
2023-04-01T09:22:07.139Z,61.49
2023-04-01T09:25:07.930Z,60.93
2023-04-01T09:27:44.952Z,60.28
2023-04-01T09:30:28.693Z,61.91
2023-04-01T09:33:10.496Z,63.96
2023-04-01T09:35:50.388Z,62.09
2023-04-01T09:38:45.704Z,61.12
2023-04-01T09:41:26.288Z,63.87
2023-04-01T09:44:52.204Z,64.48
2023-04-01T09:48:00.979Z,63.94
2023-04-01T09:50:43.774Z,65.11
2023-04-01T09:53:17.735Z,65.21
2023-04-01T09:56:21.826Z,63.90
2023-04-01T09:59:16.230Z,60.25
2023-04-01T10:02:35.946Z,58.13
2023-04-01T10:05:32.891Z,58.88
2023-04-01T10:08:35.432Z,62.77
2023-04-01T10:11:22.845Z,63.42
2023-04-01T10:14:06.374Z,63.04
2023-04-01T10:16:58.853Z,62.13
2023-04-01T10:19:31.682Z,63.51
2023-04-01T10:22:21.917Z,62.84
2023-04-01T10:24:57.210Z,64.43
2023-04-01T10:27:45.509Z,62.93
2023-04-01T10:30:51.718Z,61.95
2023-04-01T10:33:36.819Z,62.47
2023-04-01T10:36:09.681Z,63.40
2023-04-01T10:38:49.246Z,62.61
2023-04-01T10:41:49.225Z,62.69
2023-04-01T10:45:08.657Z,61.51
2023-04-01T10:48:15.081Z,60.84
2023-04-01T10:51:20.716Z,63.18
2023-04-01T10:54:06.810Z,62.23
2023-04-01T10:57:02.241Z,63.95
2023-04-01T11:00:07.633Z,63.57
2023-04-01T11:03:24.875Z,62.47
2023-04-01T11:06:37.701Z,59.49
2023-04-01T11:09:40.437Z,57.98
2023-04-01T11:12:25.322Z,59.95
2023-04-01T11:15:12.682Z,61.18
2023-04-01T11:18:12.264Z,59.65
2023-04-01T11:21:16.925Z,59.10
2023-04-01T11:24:18.009Z,58.70
2023-04-01T11:27:46.499Z,61.16
2023-04-01T11:30:18.296Z,60.36
2023-04-01T11:33:34.813Z,60.37
2023-04-01T11:36:33.389Z,61.41
2023-04-01T11:39:22.608Z,62.48
2023-04-01T11:42:18.881Z,62.06
2023-04-01T11:45:31.535Z,62.76
2023-04-01T11:48:25.474Z,60.68
2023-04-01T11:51:11.573Z,61.40
2023-04-01T11:53:56.706Z,60.73
2023-04-01T11:56:55.359Z,60.12
2023-04-01T11:59:33.932Z,61.01
2023-04-01T12:02:48.445Z,60.84
2023-04-01T12:05:37.244Z,59.58
2023-04-01T12:08:46.443Z,59.55
2023-04-01T12:11:31.873Z,58.49
2023-04-01T12:13:58.390Z,59.78
2023-04-01T12:16:37.367Z,59.61
2023-04-01T12:19:10.214Z,60.82
2023-04-01T12:21:39.853Z,60.41
2023-04-01T12:24:14.641Z,61.44
2023-04-01T12:26:56.707Z,61.32
2023-04-01T12:29:35.472Z,61.45
2023-04-01T12:32:34.235Z,60.72
2023-04-01T12:35:19.363Z,63.67
2023-04-01T12:38:05.101Z,64.71
2023-04-01T12:40:57.980Z,62.87
2023-04-01T12:43:34.050Z,63.25
2023-04-01T12:46:19.618Z,61.49
2023-04-01T12:49:07.671Z,62.79
2023-04-01T12:51:56.249Z,61.79
2023-04-01T12:54:35.403Z,63.62
2023-04-01T12:57:21.270Z,60.69
2023-04-01T13:00:18.202Z,62.41
2023-04-01T13:03:12.548Z,63.94
2023-04-01T13:05:51.920Z,64.30
2023-04-01T13:08:56.166Z,65.05
2023-04-01T13:11:34.197Z,65.33
2023-04-01T13:14:31.363Z,64.00
2023-04-01T13:17:05.388Z,63.84
2023-04-01T13:20:06.204Z,65.06
2023-04-01T13:22:52.288Z,62.91
2023-04-01T13:25:36.438Z,63.68
2023-04-01T13:28:39.182Z,64.04
2023-04-01T13:31:47.013Z,63.56
2023-04-01T13:34:28.856Z,63.28
2023-04-01T13:37:14.378Z,62.02
2023-04-01T13:40:18.275Z,62.45
2023-04-01T13:42:55.537Z,65.16
2023-04-01T13:46:06.000Z,64.14
2023-04-01T13:48:48.020Z,63.54
2023-04-01T13:51:27.496Z,61.55
2023-04-01T13:54:15.436Z,64.22
2023-04-01T13:56:48.138Z,63.86
2023-04-01T13:59:27.068Z,64.22
2023-04-01T14:02:15.606Z,64.40
2023-04-01T14:05:01.728Z,64.17
2023-04-01T14:08:00.168Z,63.02
2023-04-01T14:10:47.284Z,62.42
2023-04-01T14:14:01.232Z,61.90
2023-04-01T14:16:56.267Z,63.35
2023-04-01T14:19:44.804Z,61.62
2023-04-01T14:22:17.768Z,62.28
2023-04-01T14:25:07.345Z,64.77
2023-04-01T14:27:42.426Z,64.52
2023-04-01T14:30:15.870Z,64.07
2023-04-01T14:33:09.228Z,63.67
2023-04-01T14:35:59.976Z,62.66
2023-04-01T14:38:38.915Z,63.69
2023-04-01T14:41:21.951Z,62.81
2023-04-01T14:44:06.676Z,63.05
2023-04-01T14:47:11.061Z,62.32
2023-04-01T14:49:44.115Z,62.89
2023-04-01T14:52:37.416Z,61.59
2023-04-01T14:55:20.438Z,61.50
2023-04-01T14:58:19.311Z,61.97
2023-04-01T15:01:06.705Z,61.27
2023-04-01T15:04:06.447Z,61.06
2023-04-01T15:07:02.094Z,60.76
2023-04-01T15:09:53.507Z,59.93
2023-04-01T15:12:49.236Z,60.49
2023-04-01T15:15:58.018Z,61.53
2023-04-01T15:18:46.062Z,61.20
2023-04-01T15:21:26.453Z,62.91
2023-04-01T15:24:13.176Z,61.60
2023-04-01T15:26:46.083Z,63.17
2023-04-01T15:29:32.028Z,62.35
2023-04-01T15:32:14.447Z,63.05
2023-04-01T15:35:01.976Z,60.84
2023-04-01T15:37:41.217Z,61.67
2023-04-01T15:40:26.747Z,60.65
2023-04-01T15:42:57.073Z,61.18
2023-04-01T15:45:36.506Z,61.93
2023-04-01T15:48:14.180Z,61.95
2023-04-01T15:51:21.835Z,61.24
2023-04-01T15:54:14.084Z,61.50
2023-04-01T15:57:05.516Z,61.20
2023-04-01T15:59:44.291Z,61.30
2023-04-01T16:02:32.295Z,62.31
2023-04-01T16:05:22.152Z,62.46
2023-04-01T16:08:27.416Z,62.12
2023-04-01T16:11:09.212Z,62.04
2023-04-01T16:13:56.174Z,63.07
2023-04-01T16:16:35.536Z,64.00
2023-04-01T16:19:30.118Z,63.60
2023-04-01T16:22:06.512Z,63.51
2023-04-01T16:24:46.136Z,61.73
2023-04-01T16:27:23.498Z,61.92
2023-04-01T16:29:58.615Z,62.32
2023-04-01T16:32:52.156Z,61.79
2023-04-01T16:35:48.088Z,62.30
2023-04-01T16:38:30.559Z,61.67
2023-04-01T16:41:03.659Z,62.45
2023-04-01T16:43:59.052Z,63.10
2023-04-01T16:46:33.814Z,62.11
2023-04-01T16:49:25.086Z,64.80
2023-04-01T16:51:51.674Z,62.73
2023-04-01T16:54:37.079Z,67.55
2023-04-01T16:57:12.025Z,65.49
2023-04-01T16:59:45.949Z,63.58
2023-04-01T17:02:18.560Z,61.97
2023-04-01T17:05:04.714Z,61.85
2023-04-01T17:07:39.038Z,63.19
2023-04-01T17:10:26.881Z,62.41
2023-04-01T17:13:09.321Z,61.46
2023-04-01T17:15:53.692Z,61.42
2023-04-01T17:18:29.753Z,61.78
2023-04-01T17:21:11.276Z,62.53
2023-04-01T17:23:51.876Z,62.02
2023-04-01T17:26:38.403Z,64.48
2023-04-01T17:29:54.289Z,62.18
2023-04-01T17:32:42.830Z,61.58
2023-04-01T17:35:17.620Z,61.34
2023-04-01T17:38:16.607Z,60.08
2023-04-01T17:41:16.812Z,59.59
2023-04-01T17:43:53.915Z,60.42
2023-04-01T17:46:40.745Z,61.30
2023-04-01T17:49:39.958Z,61.60
2023-04-01T17:52:27.948Z,63.10
2023-04-01T17:55:04.466Z,63.26
2023-04-01T17:57:37.266Z,64.59
2023-04-01T18:00:15.116Z,66.50
2023-04-01T18:03:10.669Z,66.48
2023-04-01T18:06:00.061Z,66.22
2023-04-01T18:08:43.800Z,65.17
2023-04-01T18:11:40.068Z,65.18
2023-04-01T18:14:25.538Z,66.12
2023-04-01T18:17:11.813Z,66.77
2023-04-01T18:20:02.744Z,65.36
2023-04-01T18:22:42.646Z,65.82
2023-04-01T18:25:31.262Z,64.81
2023-04-01T18:28:15.495Z,64.87
2023-04-01T18:30:45.235Z,65.81
2023-04-01T18:33:26.939Z,64.72
2023-04-01T18:36:17.076Z,64.49
2023-04-01T18:38:51.376Z,65.33
2023-04-01T18:41:50.459Z,65.06
2023-04-01T18:44:45.516Z,64.39
2023-04-01T18:47:44.765Z,64.48
2023-04-01T18:50:19.756Z,65.08
2023-04-01T18:52:46.752Z,64.72
2023-04-01T18:55:32.240Z,63.41
2023-04-01T18:58:34.700Z,62.95
2023-04-01T19:01:20.693Z,66.09
2023-04-01T19:04:05.473Z,65.13
2023-04-01T19:06:53.047Z,64.03
2023-04-01T19:09:46.922Z,66.62
2023-04-01T19:12:32.039Z,65.22
2023-04-01T19:15:28.618Z,66.36
2023-04-01T19:18:34.701Z,64.48
2023-04-01T19:21:11.935Z,64.23
2023-04-01T19:24:06.895Z,64.90
2023-04-01T19:27:25.791Z,63.67
2023-04-01T19:30:28.182Z,63.64
2023-04-01T19:33:51.682Z,66.04
2023-04-01T19:36:18.290Z,64.37
2023-04-01T19:39:11.000Z,65.26
2023-04-01T19:41:57.992Z,63.97
2023-04-01T19:45:06.397Z,64.26
2023-04-01T19:47:51.655Z,65.79
2023-04-01T19:50:41.193Z,63.00
2023-04-01T19:53:29.838Z,64.33
2023-04-01T19:56:15.894Z,67.49
2023-04-01T19:59:11.830Z,66.20
2023-04-01T20:01:45.347Z,66.75
2023-04-01T20:04:15.954Z,66.13
2023-04-01T20:06:57.368Z,66.24
2023-04-01T20:09:39.238Z,65.72
2023-04-01T20:12:20.961Z,66.96
2023-04-01T20:14:52.147Z,66.62
2023-04-01T20:17:27.137Z,66.61
2023-04-01T20:20:15.550Z,65.94
2023-04-01T20:22:45.154Z,65.26
2023-04-01T20:25:20.755Z,65.57
2023-04-01T20:27:53.077Z,64.34
2023-04-01T20:31:02.800Z,61.76
2023-04-01T20:34:00.393Z,61.70
2023-04-01T20:36:52.033Z,64.29
2023-04-01T20:39:32.462Z,61.77
2023-04-01T20:42:14.648Z,61.88
2023-04-01T20:45:01.044Z,60.63
2023-04-01T20:47:52.304Z,60.77
2023-04-01T20:50:28.175Z,61.23
2023-04-01T20:53:17.634Z,62.21
2023-04-01T20:55:47.231Z,63.33
2023-04-01T20:58:41.994Z,65.77
2023-04-01T21:01:15.296Z,64.92
2023-04-01T21:03:50.216Z,66.63
2023-04-01T21:06:27.736Z,66.62
2023-04-01T21:09:20.495Z,64.44
2023-04-01T21:11:59.972Z,64.32
2023-04-01T21:14:48.342Z,62.64
2023-04-01T21:17:54.223Z,62.77
2023-04-01T21:20:38.315Z,62.93
2023-04-01T21:23:14.247Z,64.93
2023-04-01T21:25:53.195Z,64.65
2023-04-01T21:28:48.896Z,64.11
2023-04-01T21:31:33.848Z,63.58
2023-04-01T21:34:25.633Z,63.33
2023-04-01T21:37:20.843Z,62.65
2023-04-01T21:40:25.381Z,63.81
2023-04-01T21:43:17.478Z,64.73
2023-04-01T21:46:05.647Z,65.27
2023-04-01T21:48:35.296Z,65.06
2023-04-01T21:51:32.947Z,65.69
2023-04-01T21:54:31.936Z,66.26
2023-04-01T21:57:26.222Z,67.13
2023-04-01T21:59:59.059Z,69.27
2023-04-01T22:02:40.997Z,67.05
2023-04-01T22:05:13.172Z,65.91
2023-04-01T22:08:04.069Z,64.91
2023-04-01T22:10:51.248Z,66.51
2023-04-01T22:13:27.649Z,66.62
2023-04-01T22:16:19.960Z,66.98
2023-04-01T22:19:14.312Z,67.08
2023-04-01T22:21:53.108Z,66.49
2023-04-01T22:24:44.910Z,67.20
2023-04-01T22:27:27.245Z,68.94
2023-04-01T22:30:04.878Z,67.98
2023-04-01T22:32:48.073Z,67.85
2023-04-01T22:35:25.285Z,66.32
2023-04-01T22:38:11.175Z,65.72
2023-04-01T22:40:50.390Z,64.43
2023-04-01T22:43:37.253Z,65.24
2023-04-01T22:46:10.063Z,66.03
2023-04-01T22:48:40.545Z,66.22
2023-04-01T22:51:22.885Z,67.85
2023-04-01T22:53:58.146Z,67.20
2023-04-01T22:56:32.520Z,68.30
2023-04-01T22:59:27.836Z,69.24
2023-04-01T23:02:02.188Z,66.93
2023-04-01T23:04:40.940Z,67.48
2023-04-01T23:07:49.996Z,65.79
2023-04-01T23:10:25.968Z,65.36
2023-04-01T23:12:55.812Z,66.76
2023-04-01T23:15:23.269Z,69.24
2023-04-01T23:18:01.668Z,68.13
2023-04-01T23:20:54.386Z,67.63
2023-04-01T23:23:54.486Z,68.84
2023-04-01T23:26:21.842Z,67.83
2023-04-01T23:28:50.681Z,68.69
2023-04-01T23:31:28.432Z,67.88
2023-04-01T23:34:01.248Z,67.84
2023-04-01T23:36:29.287Z,68.29
2023-04-01T23:38:56.371Z,68.75
2023-04-01T23:41:28.940Z,67.31
2023-04-01T23:44:14.634Z,66.76
2023-04-01T23:46:45.871Z,66.47
2023-04-01T23:49:18.541Z,66.71
2023-04-01T23:51:56.670Z,66.73
2023-04-01T23:54:48.124Z,67.09
2023-04-01T23:57:19.750Z,66.66
